site sitenws-alerts: Checking more than four warning/county codes can delay the loading of your pages. You should use a cron job to get the data.

Nearby METAR Weather Reports

 

KDMA - Davis/Tucson, Arizona, USA
Distance from station: W 21mi, 34km
Updated: 06/15/2019 10:58pm
Clear
Clear
 Wind from WSW
Wind: WSW 3 mph , 6 km/h
Temperature: 81°F , 27°C
Dew Point: 36°F , 2°C
Humidity: 20%
Barometer: 29.91 inHg , 1012.9 hPa
Clouds: Clear
Visibility: 10 miles , 16 km
2019/06/16 05:58 KDMA 160558Z AUTO 25003KT 10SM CLR 27/02 A2991 RMK AO2 SLP080 T02740017 10364 20274 52021 $
KTUS - Tucson, Arizona, USA
Distance from station: W 26mi, 42km
Updated: 06/15/2019 10:53pm
Clear
Clear
 Wind from WSW
Wind: WSW 5 mph , 7 km/h
Temperature: 82°F , 28°C
Dew Point: 39°F , 4°C
Humidity: 21%
Barometer: 29.92 inHg , 1013.2 hPa
Clouds: Clear
Visibility: 10 miles , 16 km
2019/06/16 05:53 KTUS 160553Z 24004KT 10SM CLR 28/04 A2992 RMK AO2 SLP079 T02830039 10372 20283 51019
 
KALK - Pioneer Airfield, Arizona, USA
Distance from station: S 37mi, 60km
Updated: 06/15/2019 10:56pm
Clear
Clear
 Wind from SW
Wind: SW 14 mph , 22 km/h
Temperature: 75°F , 24°C
Dew Point: 27°F , -3°C
Humidity: 16%
Barometer: 30.08 inHg , 1018.6 hPa
Clouds: Clear
Visibility: 10 miles , 16 km
2019/06/16 05:56 KALK 160556Z AUTO 23012KT 10SM CLR 24/M03 A3008 RMK AO2 SLP084 T02391028 10317 20222 50012
KRYN - Tucson/Ryan Fld, Arizona, USA
Distance from station: W 39mi, 62km
Updated: 06/15/2019 7:45pm
NOT Current
Clear
Clear
 Wind from SW
Wind: SW 7 mph , 11 km/h
Temperature: 91°F , 33°C
Dew Point: 23°F , -5°C
Humidity: 8%
Barometer: 29.84 inHg , 1010.5 hPa
Clouds: Clear
Visibility: 10 miles , 16 km
2019/06/16 02:45 KRYN 160245Z 22006KT 10SM CLR 33/M05 A2984 RMK LAST
 
KFHU - Fort Huachuca, Arizona, USA
Distance from station: SSE 39mi, 63km
Updated: 06/15/2019 10:58pm
Clear
Clear
 Wind from WSW
Wind: WSW 15 mph , 24 km/h
Temperature: 77°F , 25°C
Dew Point: 25°F , -4°C
Humidity: 14%
Barometer: 30.06 inHg , 1017.9 hPa
Clouds: Clear
Visibility: 10 miles , 16 km
2019/06/16 05:58 KFHU 160558Z AUTO 24013KT 10SM CLR 25/M04 A3006 RMK AO2 SLP098 T02481036 10322 20234 51011
KOLS - Nogales, Arizona, USA
Distance from station: SSW 54mi, 86km
Updated: 06/15/2019 10:54pm
Clear
Clear
 Wind from calm
Wind: Calm
Temperature: 72°F , 22°C
Dew Point: 34°F , 1°C
Humidity: 25%
Barometer: 30.02 inHg , 1016.6 hPa
Clouds: Clear
Visibility: 10 miles , 16 km
2019/06/16 05:54 KOLS 160554Z AUTO 00000KT 10SM CLR 22/01 A3002 RMK AO2 SLP091 T02170006 10339 20217 51017
 
KDUG - Douglas Bisbee, Arizona, USA
Distance from station: SE 71mi, 114km
Updated: 06/15/2019 10:56pm
Clear
Clear
 Wind from SSE
Wind: SSE 7 mph , 11 km/h
Temperature: 70°F , 21°C
Dew Point: 21°F , -6°C
Humidity: 16%
Barometer: 30.02 inHg , 1016.6 hPa
Clouds: Clear
Visibility: 10 miles , 16 km
2019/06/16 05:56 KDUG 160556Z AUTO 16006KT 10SM CLR 21/M06 A3002 RMK AO2 SLP090 T02111056 10333 20206 51015
KSAD - Safford, Arizona, USA
Distance from station: NE 71mi, 114km
Updated: 06/15/2019 10:51pm
Clear
Clear
 Wind from NW
Wind: NW 10 mph , 17 km/h
Temperature: 79°F , 26°C
Dew Point: 21°F , -6°C
Humidity: 12%
Barometer: 29.90 inHg , 1012.5 hPa
Clouds: Clear
Visibility: 10 miles , 16 km
2019/06/16 05:51 KSAD 160551Z AUTO 32009KT 10SM CLR 26/M06 A2990 RMK AO2 SLP065 T02561061 10367 20256 50015
 
KCGZ - Casa Granda, Arizona, USA
Distance from station: NW 93mi, 149km
Updated: 06/15/2019 10:56pm
Clear
Clear
 Wind from WSW
Wind: WSW 6 mph , 9 km/h
Temperature: 84°F , 29°C
Dew Point: 43°F , 6°C
Humidity: 23%
Barometer: 29.80 inHg , 1009.1 hPa
Clouds: Clear
Visibility: 10 miles , 16 km
2019/06/16 05:56 KCGZ 160556Z AUTO 25005KT 10SM CLR 29/06 A2980 RMK AO2 SLP074 T02890061 10383 20289 51013
KLSB - Lordsburg, New Mexico, USA
Distance from station: E 106mi, 171km
Updated: 02/26/2018 1:22pm
NOT Current
Clear
Clear
 Wind from ESE
Wind: ESE 13 mph , 20 km/h, Gust: 18 mph , 30 km/h
Temperature: 63°F , 17°C
Dew Point: 10°F , -12°C
Humidity: 13%
Barometer: 30.04 inHg , 1017.3 hPa
Clouds: Clear
Visibility: 10 miles , 16 km
2018/02/26 20:22 KLSB 262022Z AUTO 11011G16KT 090V150 10SM CLR 17/M12 A3004
 
KPHX - Phoenix/Sky Hrbr, Arizona, USA
Distance from station: NW 126mi, 202km
Updated: 06/15/2019 10:51pm
Few Clouds
Few Clouds
 Wind from W
Wind: W 10 mph , 17 km/h
Temperature: 91°F , 33°C
Dew Point: 39°F , 4°C
Humidity: 16%
Barometer: 29.75 inHg , 1007.5 hPa
Clouds: Few Clouds
Visibility: 10 miles , 16 km
Cloud details: Few Clouds 10000 ft
2019/06/16 05:51 KPHX 160551Z 26009KT 10SM FEW100 33/04 A2975 RMK AO2 SLP052 T03330044 10394 20333 51012
KGXF - Gila Bend (aaf), Arizona, USA
Distance from station: WNW 139mi, 223km
Updated: 06/15/2019 10:58pm
Clear
Clear
 Wind from calm
Wind: Calm
Temperature: 88°F , 31°C
Dew Point: 32°F , 0°C
Humidity: 13%
Barometer: 29.75 inHg , 1007.5 hPa
Clouds: Clear
Visibility: 10 miles , 16 km
2019/06/16 05:58 KGXF 160558Z AUTO 00000KT 10SM CLR 31/00 A2975 RMK AO2 SLP060 T03050000 10402 20305 50014 $
 
KSVC - Silver City, New Mexico, USA
Distance from station: ENE 142mi, 228km
Updated: 06/15/2019 11:35pm
Clear
Clear
 Wind from NNW
Wind: NNW 9 mph , 15 km/h
Temperature: 55°F , 13°C
Dew Point: 21°F , -6°C
Humidity: 26%
Barometer: 30.06 inHg , 1017.9 hPa
Clouds: Clear
Visibility: 10 miles , 16 km
2019/06/16 06:35 KSVC 160635Z AUTO 33008KT 10SM CLR 13/M06 A3006 RMK AO2 T01311063
KLUF - Luke Afb/Glendal, Arizona, USA
Distance from station: NW 144mi, 232km
Updated: 06/15/2019 10:58pm
Clear
Clear
 Wind from SSW
Wind: SSW 16 mph , 26 km/h
Temperature: 90°F , 32°C
Dew Point: 41°F , 5°C
Humidity: 18%
Barometer: 29.74 inHg , 1007.1 hPa
Clouds: Clear
Visibility: 10 miles , 16 km
2019/06/16 05:58 KLUF 160558Z AUTO 20014KT 10SM CLR 32/05 A2974 RMK AO2 SLP056 T03180053 10390 20312 52012